Time;durP1;ratioP1;P1;durP2;ratioP2;P2;SDS_P1;SDS_P2;PMS_P1;PMS_P2;Temp;Humidity;BMP_temperature;BMP_pressure;BME280_temperature;BME280_humidity;BME280_pressure;Samples;Min_cycle;Max_cycle;Signal;HPM_P1;HPM_P2
2023/12/31 00:01:04;;;;;;;13.57;6.22;;;;;;;-0.90;97.10;100619.28;10411931;28;20401;-73
2023/12/31 00:06:05;;;;;;;13.20;6.70;;;;;;;-1.05;97.38;100607.97;10412213;28;20041;-73
2023/12/31 00:11:06;;;;;;;15.82;6.38;;;;;;;-1.08;97.27;100608.16;10412613;28;20042;-73
2023/12/31 00:16:20;;;;;;;11.85;5.95;;;;;;;-1.10;97.51;100599.59;10412438;28;20037;-73
2023/12/31 00:21:20;;;;;;;11.25;5.90;;;;;;;-1.23;96.51;100598.59;10411623;28;20041;-73
2023/12/31 00:26:21;;;;;;;14.77;6.32;;;;;;;-1.57;97.32;100535.34;10411465;28;20409;-73
2023/12/31 00:31:22;;;;;;;10.55;6.50;;;;;;;-1.41;97.03;100556.16;10411452;28;20042;-73
2023/12/31 00:36:26;;;;;;;12.63;6.65;;;;;;;-1.25;96.80;100590.03;10411968;28;20476;-73
2023/12/31 00:41:27;;;;;;;13.77;5.75;;;;;;;-1.96;96.85;100491.53;10418089;28;20081;-73
2023/12/31 00:46:28;;;;;;;11.27;5.97;;;;;;;-1.51;96.22;100599.31;10418873;28;20052;-73
2023/12/31 00:51:28;;;;;;;14.38;7.10;;;;;;;-1.53;97.33;100578.53;10418481;28;20037;-73
2023/12/31 00:56:29;;;;;;;16.00;6.50;;;;;;;-1.41;97.60;100590.03;10418961;28;20041;-73
2023/12/31 01:01:30;;;;;;;14.13;6.63;;;;;;;-1.43;97.22;100590.13;10418839;28;20049;-73
2023/12/31 01:06:31;;;;;;;13.98;7.35;;;;;;;-1.41;97.40;100574.41;10418473;28;20041;-73
2023/12/31 01:11:33;;;;;;;20.55;7.30;;;;;;;-1.46;97.64;100561.66;10417501;28;20045;-73
2023/12/31 01:16:34;;;;;;;21.83;7.55;;;;;;;-1.27;97.43;100566.66;10418206;28;20048;-73
2023/12/31 01:21:35;;;;;;;15.23;8.15;;;;;;;-1.41;97.83;100535.31;10416830;28;20437;-73
2023/12/31 01:26:36;;;;;;;17.33;6.85;;;;;;;-1.23;97.86;100556.88;10417127;28;20390;-73
2023/12/31 01:31:37;;;;;;;16.45;8.55;;;;;;;-1.06;98.11;100554.16;10416739;28;20037;-73
2023/12/31 01:36:38;;;;;;;28.80;8.77;;;;;;;-1.12;97.82;100546.69;10416570;28;20402;-73
2023/12/31 01:41:39;;;;;;;17.48;7.25;;;;;;;-1.02;97.52;100560.03;10416491;28;20041;-74
2023/12/31 01:46:40;;;;;;;17.40;7.32;;;;;;;-0.90;97.88;100563.69;10416253;28;20132;-73
2023/12/31 01:51:41;;;;;;;17.45;7.72;;;;;;;-1.20;97.93;100510.66;10416286;28;20041;-74
2023/12/31 01:56:44;;;;;;;18.58;8.35;;;;;;;-1.13;97.92;100550.25;10415860;28;20045;-73
2023/12/31 02:01:48;;;;;;;24.15;9.07;;;;;;;-1.15;97.65;100549.47;10416246;28;20512;-74
2023/12/31 02:06:49;;;;;;;20.50;7.75;;;;;;;-1.43;97.49;100492.88;10415769;28;20040;-74
2023/12/31 02:11:50;;;;;;;13.25;7.30;;;;;;;-1.30;97.05;100545.13;10415082;28;20124;-74
2023/12/31 02:16:50;;;;;;;16.42;7.68;;;;;;;-1.28;98.17;100541.53;10415719;28;20128;-74
2023/12/31 02:21:51;;;;;;;18.10;7.30;;;;;;;-1.07;98.09;100549.03;10414740;28;20071;-73
2023/12/31 02:26:52;;;;;;;12.60;7.25;;;;;;;-1.27;97.45;100527.56;10414736;28;20571;-74
2023/12/31 02:31:53;;;;;;;16.50;7.45;;;;;;;-1.47;98.22;100496.56;10414849;28;20037;-73
2023/12/31 02:36:54;;;;;;;14.10;7.43;;;;;;;-1.38;97.21;100536.00;10414959;28;20081;-71
2023/12/31 02:41:55;;;;;;;12.98;7.50;;;;;;;-1.49;97.59;100532.31;10414052;28;20077;-73
2023/12/31 02:46:56;;;;;;;15.73;7.20;;;;;;;-1.57;97.62;100526.69;10414243;28;20038;-72
2023/12/31 02:51:57;;;;;;;17.60;8.32;;;;;;;-1.53;97.82;100534.22;10413864;28;20041;-72
2023/12/31 02:56:58;;;;;;;21.63;7.68;;;;;;;-1.81;97.62;100515.88;10413660;28;20124;-72
2023/12/31 03:01:59;;;;;;;22.52;8.52;;;;;;;-2.43;97.32;100464.53;10411323;28;20049;-71
2023/12/31 03:07:00;;;;;;;21.52;8.75;;;;;;;-2.06;98.05;100522.44;10413507;28;20140;-71
2023/12/31 03:12:00;;;;;;;19.13;8.20;;;;;;;-1.96;98.48;100505.38;10413879;28;20075;-72
2023/12/31 03:17:01;;;;;;;25.55;9.35;;;;;;;-1.98;98.58;100517.63;10413444;28;20049;-72
2023/12/31 03:22:03;;;;;;;21.45;11.43;;;;;;;-2.01;98.01;100535.19;10413336;28;20045;-72
2023/12/31 03:27:04;;;;;;;17.30;8.70;;;;;;;-2.20;98.12;100527.53;10413381;28;20048;-72
2023/12/31 03:32:05;;;;;;;19.48;8.02;;;;;;;-2.07;98.42;100546.75;10412948;28;20045;-71
2023/12/31 03:37:05;;;;;;;21.33;8.73;;;;;;;-2.13;98.69;100532.31;10411797;28;20049;-72
2023/12/31 03:42:07;;;;;;;24.65;8.60;;;;;;;-2.65;97.87;100472.66;10412483;28;20048;-73
2023/12/31 03:47:07;;;;;;;19.30;8.73;;;;;;;-2.34;98.05;100528.25;10412503;28;20045;-73
2023/12/31 03:52:08;;;;;;;23.42;9.40;;;;;;;-2.30;98.40;100529.78;10412955;28;20440;-73
2023/12/31 03:57:09;;;;;;;21.52;7.97;;;;;;;-2.46;98.08;100516.72;10412120;28;20049;-73
2023/12/31 04:02:10;;;;;;;33.90;8.82;;;;;;;-2.46;98.52;100514.13;10411995;28;20042;-74
2023/12/31 04:07:11;;;;;;;24.42;7.72;;;;;;;-2.40;98.53;100519.00;10412425;28;20041;-74
2023/12/31 04:12:12;;;;;;;15.85;6.53;;;;;;;-2.30;98.78;100524.59;10412615;28;20037;-74
2023/12/31 04:17:12;;;;;;;22.38;7.35;;;;;;;-2.10;98.39;100546.94;10420362;28;20413;-74
2023/12/31 04:22:13;;;;;;;15.75;7.28;;;;;;;-2.13;98.42;100545.31;10420677;28;20052;-74
2023/12/31 04:27:14;;;;;;;26.83;7.15;;;;;;;-2.16;99.10;100560.28;10419253;28;20041;-74
2023/12/31 04:32:15;;;;;;;18.30;6.82;;;;;;;-2.68;98.76;100454.63;10420257;28;20091;-73
2023/12/31 04:37:15;;;;;;;19.27;6.55;;;;;;;-2.04;98.76;100570.03;10419893;28;20056;-74
2023/12/31 04:42:16;;;;;;;15.20;6.15;;;;;;;-2.08;98.31;100576.31;10417558;28;20394;-74
2023/12/31 04:47:17;;;;;;;20.90;6.47;;;;;;;-2.10;98.38;100578.16;10418572;28;20710;-73
2023/12/31 04:52:18;;;;;;;20.63;6.40;;;;;;;-2.01;98.41;100582.88;10418470;28;20045;-73
2023/12/31 04:57:18;;;;;;;14.10;5.78;;;;;;;-1.94;98.47;100589.47;10418400;28;20037;-74
2023/12/31 05:02:19;;;;;;;22.25;6.97;;;;;;;-2.01;97.84;100580.28;10418665;28;20060;-74
2023/12/31 05:07:20;;;;;;;14.75;6.32;;;;;;;-2.10;97.32;100565.16;10418989;28;20086;-73
2023/12/31 05:12:21;;;;;;;19.75;6.97;;;;;;;-1.95;96.93;100608.59;10417726;28;20421;-73
2023/12/31 05:17:22;;;;;;;22.85;6.97;;;;;;;-1.98;97.22;100581.88;10418912;28;20069;-73
2023/12/31 05:22:23;;;;;;;18.63;6.45;;;;;;;-1.98;97.00;100572.28;10417841;28;20080;-73
2023/12/31 05:27:24;;;;;;;20.92;5.47;;;;;;;-2.19;97.12;100542.22;10416924;28;20088;-73
2023/12/31 05:32:24;;;;;;;31.35;6.70;;;;;;;-1.69;97.61;100575.94;10417403;28;20042;-72
2023/12/31 05:37:25;;;;;;;45.67;8.27;;;;;;;-1.31;96.97;100585.19;10418171;28;20053;-73
2023/12/31 05:42:27;;;;;;;19.52;6.32;;;;;;;-1.07;96.62;100582.94;10416925;28;20056;-72
2023/12/31 05:47:28;;;;;;;16.77;5.70;;;;;;;-0.74;96.63;100578.38;10416022;28;20482;-74
2023/12/31 05:52:28;;;;;;;15.40;5.07;;;;;;;-0.47;96.18;100565.47;10416673;28;20042;-73
2023/12/31 05:57:29;;;;;;;14.45;5.30;;;;;;;-0.10;95.55;100563.22;10416434;28;20048;-73
2023/12/31 06:02:30;;;;;;;15.57;6.00;;;;;;;0.27;95.28;100568.78;10415400;28;20132;-74
2023/12/31 06:07:31;;;;;;;13.10;5.32;;;;;;;0.37;93.92;100528.06;10413451;28;20056;-69
2023/12/31 06:12:32;;;;;;;11.98;4.47;;;;;;;0.89;93.87;100557.81;10416030;28;20041;-74
2023/12/31 06:17:33;;;;;;;14.05;4.85;;;;;;;0.87;93.22;100491.72;10415103;28;20413;-74
2023/12/31 06:22:35;;;;;;;11.82;4.95;;;;;;;1.51;91.94;100546.72;10415195;28;20048;-73
2023/12/31 06:27:40;;;;;;;10.40;4.78;;;;;;;1.50;91.22;100508.41;10414819;28;20037;-71
2023/12/31 06:32:41;;;;;;;10.63;4.38;;;;;;;2.04;90.30;100542.16;10414166;28;20037;-73
2023/12/31 06:37:41;;;;;;;9.60;4.65;;;;;;;2.16;88.84;100554.38;10413660;28;20053;-73
2023/12/31 06:42:42;;;;;;;8.38;4.60;;;;;;;2.24;87.85;100553.81;10414609;28;20045;-73
2023/12/31 06:47:43;;;;;;;9.75;4.75;;;;;;;2.50;87.49;100558.03;10413430;28;20128;-73
2023/12/31 06:52:44;;;;;;;8.68;4.68;;;;;;;2.82;86.63;100570.59;10413003;28;20045;-73
2023/12/31 06:57:44;;;;;;;9.23;4.88;;;;;;;2.74;85.46;100521.31;10414667;28;20044;-73
2023/12/31 07:02:46;;;;;;;6.78;4.35;;;;;;;3.35;84.88;100584.16;10412746;28;20041;-73
2023/12/31 07:07:47;;;;;;;6.57;3.88;;;;;;;3.54;84.31;100567.84;10411551;28;20033;-73
2023/12/31 07:12:48;;;;;;;7.43;3.42;;;;;;;3.98;83.48;100576.69;10413654;28;20044;-73
2023/12/31 07:17:49;;;;;;;5.75;3.40;;;;;;;4.37;83.06;100586.81;10412888;28;20127;-73
2023/12/31 07:22:49;;;;;;;12.93;3.83;;;;;;;4.66;81.85;100581.84;10412902;28;20131;-73
2023/12/31 07:27:50;;;;;;;8.80;3.42;;;;;;;4.85;81.26;100563.63;10410371;28;20033;-73
2023/12/31 07:32:52;;;;;;;10.48;4.50;;;;;;;5.23;79.87;100567.50;10411781;28;20053;-74
2023/12/31 07:37:53;;;;;;;10.98;4.97;;;;;;;5.29;78.95;100553.81;10412910;28;20085;-73
2023/12/31 07:42:53;;;;;;;10.27;4.55;;;;;;;5.51;79.40;100557.28;10412140;28;20440;-73
2023/12/31 07:47:54;;;;;;;10.65;3.50;;;;;;;5.65;78.70;100551.66;10409353;28;20037;-71
2023/12/31 07:52:55;;;;;;;8.25;4.50;;;;;;;5.86;78.63;100552.47;10418078;28;20049;-70
2023/12/31 07:57:56;;;;;;;7.97;3.88;;;;;;;6.03;77.79;100531.72;10415846;28;20120;-71
2023/12/31 08:02:57;;;;;;;14.13;4.47;;;;;;;6.02;77.30;100490.53;10420679;28;20111;-70
2023/12/31 08:07:58;;;;;;;10.65;4.00;;;;;;;6.23;76.90;100474.59;10421253;28;20107;-73
2023/12/31 08:12:59;;;;;;;14.95;4.50;;;;;;;6.53;76.71;100498.22;10419953;28;20045;-70
2023/12/31 08:18:04;;;;;;;13.05;3.92;;;;;;;6.64;76.00;100502.53;10417855;28;20049;-70
2023/12/31 08:23:07;;;;;;;14.20;4.65;;;;;;;6.73;76.42;100487.66;10409958;28;20077;-70
2023/12/31 08:28:08;;;;;;;7.82;4.70;;;;;;;6.53;75.83;100426.97;10419197;28;20072;-70
2023/12/31 08:33:09;;;;;;;13.07;4.60;;;;;;;7.02;75.48;100477.06;10414502;28;20030;-70
2023/12/31 08:38:10;;;;;;;9.32;5.18;;;;;;;7.19;75.31;100447.28;10413026;28;20069;-71
2023/12/31 08:43:11;;;;;;;13.68;4.72;;;;;;;7.62;74.54;100452.97;10385574;28;20046;-71
2023/12/31 08:48:12;;;;;;;12.13;5.45;;;;;;;7.91;73.76;100416.63;10378408;28;20053;-70
2023/12/31 08:53:13;;;;;;;14.52;4.85;;;;;;;8.32;72.80;100443.50;10403325;28;20038;-73
2023/12/31 08:58:14;;;;;;;10.60;5.03;;;;;;;8.41;72.54;100425.91;10417748;28;20041;-71
2023/12/31 09:03:16;;;;;;;8.80;4.40;;;;;;;8.72;72.24;100414.91;10413968;28;20041;-70
2023/12/31 09:08:17;;;;;;;15.55;4.97;;;;;;;9.33;71.34;100417.47;10416464;28;20060;-70
2023/12/31 09:13:22;;;;;;;9.27;4.28;;;;;;;9.37;70.74;100402.06;10416929;28;20528;-71
2023/12/31 09:18:23;;;;;;;11.27;4.10;;;;;;;9.27;70.93;100403.97;10417971;28;20045;-70
2023/12/31 09:23:24;;;;;;;8.13;4.07;;;;;;;9.10;70.91;100381.88;10417161;28;20049;-70
2023/12/31 09:28:25;;;;;;;14.38;4.40;;;;;;;9.11;70.69;100388.84;10415234;28;20627;-70
2023/12/31 09:33:26;;;;;;;7.13;3.55;;;;;;;9.27;70.16;100377.47;10415389;28;20041;-70
2023/12/31 09:38:27;;;;;;;8.55;4.07;;;;;;;9.51;69.24;100374.94;10417590;28;20045;-72
2023/12/31 09:43:28;;;;;;;10.88;4.35;;;;;;;9.74;68.38;100377.00;10416999;28;20091;-71
2023/12/31 09:48:30;;;;;;;7.82;3.83;;;;;;;10.03;67.70;100376.56;10416350;28;20041;-71
2023/12/31 09:53:31;;;;;;;10.85;5.28;;;;;;;10.09;66.69;100317.50;10416708;28;20034;-71
2023/12/31 09:58:35;;;;;;;49.00;23.35;;;;;;;10.46;66.50;100324.16;10416669;28;20136;-72
2023/12/31 10:03:38;;;;;;;45.55;24.33;;;;;;;10.80;66.28;100365.63;10416605;28;20045;-71
2023/12/31 10:08:40;;;;;;;30.80;16.23;;;;;;;10.85;66.28;100360.63;10416135;28;20033;-71
2023/12/31 10:13:40;;;;;;;30.92;13.45;;;;;;;10.80;65.74;100315.13;10414841;28;20107;-71
2023/12/31 10:18:41;;;;;;;16.85;6.25;;;;;;;11.12;65.76;100351.41;10415285;28;20033;-71
2023/12/31 10:23:43;;;;;;;18.75;6.93;;;;;;;10.99;65.22;100301.47;10412971;28;20060;-70
2023/12/31 10:28:44;;;;;;;11.43;6.13;;;;;;;11.38;64.80;100346.66;10404276;28;20405;-70
2023/12/31 10:33:44;;;;;;;9.70;5.68;;;;;;;11.51;64.83;100337.31;10410306;28;20040;-71
2023/12/31 10:38:47;;;;;;;15.30;7.72;;;;;;;11.85;65.61;100340.47;10413383;28;20199;-71
2023/12/31 10:43:48;;;;;;;15.43;6.40;;;;;;;11.84;65.30;100306.81;10414510;28;20053;-71
2023/12/31 10:49:03;;;;;;;7.35;4.15;;;;;;;12.23;61.90;100332.50;10414323;28;20033;-70
2023/12/31 10:54:08;;;;;;;5.85;3.60;;;;;;;12.04;61.76;100285.91;10414578;28;20116;-69
2023/12/31 10:59:11;;;;;;;9.80;3.80;;;;;;;12.13;62.19;100277.88;10414598;28;20064;-70
2023/12/31 11:04:15;;;;;;;5.00;3.37;;;;;;;12.31;61.33;100281.03;10413366;28;20575;-69
2023/12/31 11:09:18;;;;;;;5.72;3.42;;;;;;;12.81;61.80;100342.69;10413579;28;20044;-70
2023/12/31 11:14:29;;;;;;;7.88;3.60;;;;;;;12.76;61.37;100327.22;10413593;28;20052;-71
2023/12/31 11:20:05;;;;;;;13.98;3.70;;;;;;;12.82;60.70;100347.00;10410959;28;20075;-71
2023/12/31 11:25:06;;;;;;;17.15;4.82;;;;;;;12.58;61.85;100340.88;10404190;28;20055;-71
2023/12/31 11:30:08;;;;;;;17.92;3.95;;;;;;;12.23;61.87;100297.06;10411942;28;20501;-72
2023/12/31 11:35:10;;;;;;;50.13;5.88;;;;;;;12.55;61.79;100349.25;10413169;28;20132;-71
2023/12/31 11:40:11;;;;;;;47.60;5.57;;;;;;;12.05;61.94;100282.22;10413062;28;20045;-71
2023/12/31 11:45:44;;;;;;;5.65;3.00;;;;;;;12.45;61.46;100357.50;10412936;28;20182;-71
2023/12/31 11:50:52;;;;;;;7.15;3.65;;;;;;;12.42;62.10;100357.03;10411459;28;20034;-73
2023/12/31 11:55:54;;;;;;;9.90;3.53;;;;;;;12.46;62.79;100364.47;10412580;28;20041;-71
2023/12/31 12:00:55;;;;;;;8.40;3.17;;;;;;;12.43;63.54;100370.16;10411218;28;20045;-72
2023/12/31 12:05:56;;;;;;;11.73;3.70;;;;;;;12.47;63.75;100365.28;10402650;28;20041;-72
2023/12/31 12:10:57;;;;;;;7.72;3.33;;;;;;;12.46;65.05;100374.31;10411921;28;20048;-71
2023/12/31 12:15:58;;;;;;;45.25;19.50;;;;;;;12.42;66.15;100373.84;10411773;28;20132;-71
2023/12/31 12:20:58;;;;;;;36.65;19.63;;;;;;;11.84;67.46;100322.78;10410562;28;20501;-70
2023/12/31 12:25:59;;;;;;;20.63;9.75;;;;;;;11.57;67.98;100325.97;10411477;28;20045;-71
2023/12/31 12:31:00;;;;;;;30.90;11.98;;;;;;;11.59;68.64;100382.50;10410530;28;20050;-71
2023/12/31 12:36:03;;;;;;;49.28;18.70;;;;;;;11.26;69.70;100392.44;10416425;28;20593;-72
2023/12/31 12:41:04;;;;;;;77.43;47.40;;;;;;;10.81;70.53;100361.97;10419843;28;20136;-71
2023/12/31 12:46:10;;;;;;;53.63;24.23;;;;;;;10.39;72.09;100341.78;10419829;28;20047;-71
2023/12/31 12:51:11;;;;;;;34.65;18.38;;;;;;;10.45;72.61;100384.41;10415794;28;20045;-70
2023/12/31 12:56:12;;;;;;;78.65;33.22;;;;;;;10.10;73.38;100368.78;10415737;28;20067;-71
2023/12/31 13:01:13;;;;;;;70.90;34.47;;;;;;;9.96;75.00;100388.81;10417938;28;20444;-71
2023/12/31 13:06:14;;;;;;;40.55;23.30;;;;;;;9.60;76.02;100360.72;10416665;28;20072;-71
2023/12/31 13:11:16;;;;;;;37.13;19.42;;;;;;;9.68;75.82;100393.56;10417402;28;20049;-71
2023/12/31 13:16:17;;;;;;;96.32;19.75;;;;;;;9.56;75.81;100385.88;10417520;28;20056;-71
2023/12/31 13:21:17;;;;;;;21.25;10.02;;;;;;;9.40;76.01;100388.50;10413737;28;20524;-75
2023/12/31 13:26:18;;;;;;;14.05;8.93;;;;;;;8.91;76.07;100346.69;10416485;28;20082;-72
2023/12/31 13:31:24;;;;;;;12.88;7.97;;;;;;;9.20;76.47;100411.75;10416103;28;20040;-73
2023/12/31 13:36:24;;;;;;;40.28;9.27;;;;;;;9.03;76.92;100413.44;10416532;28;20053;-73
2023/12/31 13:41:27;;;;;;;28.63;8.82;;;;;;;8.56;77.39;100358.19;10413291;28;20037;-72
2023/12/31 13:46:28;;;;;;;22.80;8.75;;;;;;;8.71;78.03;100413.25;10415185;28;20061;-69
2023/12/31 13:51:29;;;;;;;19.52;8.30;;;;;;;8.53;78.58;100426.53;10416652;28;20076;-71
2023/12/31 13:56:30;;;;;;;21.35;8.35;;;;;;;8.27;79.30;100421.94;10413089;28;20052;-70
2023/12/31 14:01:31;;;;;;;23.13;11.93;;;;;;;7.99;79.37;100419.38;10415453;28;20045;-77
2023/12/31 14:06:31;;;;;;;26.90;14.93;;;;;;;7.91;80.30;100426.38;10409058;28;20049;-73
2023/12/31 14:11:32;;;;;;;19.50;12.07;;;;;;;7.83;81.06;100437.69;10413669;28;20044;-71
2023/12/31 14:16:33;;;;;;;20.35;9.98;;;;;;;7.83;80.98;100440.31;10415489;28;20041;-72
2023/12/31 14:21:34;;;;;;;12.75;8.98;;;;;;;7.53;81.02;100372.72;10415848;28;20397;-72
2023/12/31 14:26:35;;;;;;;11.20;7.82;;;;;;;7.73;81.32;100428.97;10414228;28;20416;-73
2023/12/31 14:31:36;;;;;;;14.05;8.52;;;;;;;7.39;81.62;100395.22;10415108;28;20065;-73
2023/12/31 14:36:37;;;;;;;14.88;8.57;;;;;;;7.38;82.17;100430.53;10413163;28;20597;-73
2023/12/31 14:41:37;;;;;;;39.65;9.70;;;;;;;7.05;82.94;100431.88;10413030;28;20053;-75
2023/12/31 14:46:38;;;;;;;18.48;8.98;;;;;;;6.84;83.26;100438.19;10410889;28;20041;-73
2023/12/31 14:51:41;;;;;;;20.98;8.95;;;;;;;6.63;83.54;100429.59;10413517;28;20057;-74
2023/12/31 14:56:42;;;;;;;17.13;8.10;;;;;;;6.16;84.23;100381.97;10413877;28;20068;-71
2023/12/31 15:01:43;;;;;;;25.50;8.35;;;;;;;5.96;85.06;100383.78;10413691;28;20045;-71
2023/12/31 15:06:43;;;;;;;16.58;9.25;;;;;;;6.16;84.70;100430.31;10411617;28;20037;-70
2023/12/31 15:11:44;;;;;;;14.90;8.60;;;;;;;6.37;85.78;100439.88;10412637;28;20046;-71
2023/12/31 15:16:45;;;;;;;13.30;8.60;;;;;;;6.71;86.06;100427.09;10412974;28;20090;-72
2023/12/31 15:21:46;;;;;;;13.23;9.02;;;;;;;7.19;85.81;100436.72;10413150;28;20037;-71
2023/12/31 15:26:47;;;;;;;12.10;8.23;;;;;;;7.19;85.43;100434.06;10413344;28;20140;-71
2023/12/31 15:31:47;;;;;;;15.63;8.15;;;;;;;7.45;85.86;100447.47;10412318;28;20037;-71
2023/12/31 15:36:48;;;;;;;13.75;9.35;;;;;;;7.42;85.96;100446.91;10413109;28;20057;-71
2023/12/31 15:41:50;;;;;;;13.82;8.27;;;;;;;7.32;85.78;100442.50;10412505;28;20416;-71
2023/12/31 15:46:51;;;;;;;12.82;9.48;;;;;;;6.97;86.16;100406.22;10411997;28;20045;-75
2023/12/31 15:51:51;;;;;;;20.13;9.45;;;;;;;7.31;86.37;100487.59;10406120;28;20136;-72
2023/12/31 15:56:52;;;;;;;11.95;9.10;;;;;;;7.26;86.84;100479.25;10411644;28;20052;-71
2023/12/31 16:01:53;;;;;;;13.18;9.43;;;;;;;7.15;86.98;100480.25;10412098;28;20504;-72
2023/12/31 16:06:54;;;;;;;14.55;9.65;;;;;;;6.75;87.21;100431.09;10410226;28;20124;-72
2023/12/31 16:11:55;;;;;;;16.95;9.55;;;;;;;6.94;88.14;100484.88;10416582;28;20091;-72
2023/12/31 16:16:55;;;;;;;15.02;8.90;;;;;;;6.72;88.40;100465.72;10418983;28;20049;-70
2023/12/31 16:21:56;;;;;;;16.45;10.98;;;;;;;6.53;88.25;100449.91;10419211;28;20045;-71
2023/12/31 16:26:57;;;;;;;19.02;11.90;;;;;;;6.59;88.62;100487.13;10416908;28;20045;-72
2023/12/31 16:31:58;;;;;;;17.17;11.80;;;;;;;6.46;88.62;100478.66;10419779;28;20037;-72
2023/12/31 16:36:58;;;;;;;15.30;11.45;;;;;;;6.20;89.10;100430.84;10419258;28;20058;-72
2023/12/31 16:41:59;;;;;;;19.90;12.07;;;;;;;6.51;88.75;100488.78;10414947;28;20056;-72
2023/12/31 16:47:00;;;;;;;21.05;11.82;;;;;;;6.16;89.07;100447.91;10415604;28;20053;-69
2023/12/31 16:52:01;;;;;;;22.30;12.10;;;;;;;6.53;89.24;100500.88;10418704;28;20033;-71
2023/12/31 16:57:01;;;;;;;15.30;10.52;;;;;;;6.51;89.32;100497.53;10413295;28;20045;-72
2023/12/31 17:02:02;;;;;;;18.58;11.73;;;;;;;6.66;89.05;100513.78;10406652;28;20064;-72
2023/12/31 17:07:03;;;;;;;12.55;8.85;;;;;;;6.72;88.89;100518.50;10405863;28;20490;-72
2023/12/31 17:12:04;;;;;;;16.38;10.70;;;;;;;6.71;88.56;100522.13;10418459;28;20087;-73
2023/12/31 17:17:05;;;;;;;13.55;9.27;;;;;;;6.69;88.73;100528.53;10415661;28;20045;-73
2023/12/31 17:22:06;;;;;;;12.75;8.63;;;;;;;6.34;89.34;100472.66;10414380;28;20068;-73
2023/12/31 17:27:08;;;;;;;19.88;7.95;;;;;;;6.64;88.72;100515.72;10398708;28;20052;-73
2023/12/31 17:32:09;;;;;;;13.10;8.38;;;;;;;6.35;89.04;100458.50;10397025;28;20444;-73
2023/12/31 17:37:10;;;;;;;12.20;7.53;;;;;;;6.01;89.13;100412.34;10416119;28;20059;-73
2023/12/31 17:42:12;;;;;;;12.13;7.63;;;;;;;6.40;89.35;100465.97;10417198;28;20049;-73
2023/12/31 17:47:13;;;;;;;14.35;7.47;;;;;;;6.57;88.94;100515.44;10416889;28;20038;-71
2023/12/31 17:52:15;;;;;;;10.63;7.40;;;;;;;6.50;89.79;100518.78;10413976;28;20493;-72
2023/12/31 17:57:15;;;;;;;10.75;7.25;;;;;;;6.48;89.35;100531.28;10413251;28;20045;-72
2023/12/31 18:02:16;;;;;;;9.73;7.20;;;;;;;6.48;89.87;100515.44;10415051;28;20057;-72
2023/12/31 18:07:18;;;;;;;12.15;8.10;;;;;;;6.36;89.68;100523.47;10414439;28;20060;-72
2023/12/31 18:12:20;;;;;;;11.43;8.27;;;;;;;6.32;89.93;100531.81;10415609;28;20033;-71
2023/12/31 18:17:24;;;;;;;11.45;8.68;;;;;;;5.76;90.69;100480.41;10416797;28;20374;-73
2023/12/31 18:22:25;;;;;;;19.35;8.25;;;;;;;5.79;90.10;100546.03;10415345;28;20136;-71
2023/12/31 18:27:26;;;;;;;18.10;11.65;;;;;;;5.39;91.17;100554.72;10414298;28;20132;-71
2023/12/31 18:32:26;;;;;;;21.15;12.38;;;;;;;4.70;91.94;100483.28;10414654;28;20037;-71
2023/12/31 18:37:27;;;;;;;23.67;11.85;;;;;;;4.63;91.67;100487.38;10415245;28;20053;-72
2023/12/31 18:42:28;;;;;;;18.65;12.90;;;;;;;4.91;91.91;100549.94;10414744;28;20049;-73
2023/12/31 18:47:29;;;;;;;18.10;11.27;;;;;;;5.01;92.47;100560.53;10413462;28;20095;-73
2023/12/31 18:52:30;;;;;;;19.25;10.75;;;;;;;4.91;92.67;100557.00;10414787;28;20378;-73
2023/12/31 18:57:31;;;;;;;19.58;11.63;;;;;;;4.46;92.62;100492.22;10414489;28;20127;-73
2023/12/31 19:02:32;;;;;;;33.03;21.00;;;;;;;4.96;93.13;100560.91;10414554;28;20068;-72
2023/12/31 19:07:33;;;;;;;36.90;21.90;;;;;;;4.53;93.51;100493.38;10413462;28;20042;-67
2023/12/31 19:12:35;;;;;;;24.50;16.77;;;;;;;5.01;93.58;100573.72;10413412;28;20186;-72
2023/12/31 19:17:38;;;;;;;22.10;14.43;;;;;;;5.00;93.57;100548.34;10412387;28;20039;-72
2023/12/31 19:22:39;;;;;;;23.52;13.70;;;;;;;5.20;93.32;100567.75;10412954;28;20130;-74
2023/12/31 19:27:40;;;;;;;30.00;14.98;;;;;;;5.43;92.87;100581.63;10412331;28;20146;-73
2023/12/31 19:32:43;;;;;;;20.83;13.23;;;;;;;5.50;93.64;100593.31;10412875;28;20052;-71
2023/12/31 19:37:44;;;;;;;24.90;13.60;;;;;;;4.85;93.22;100476.75;10412125;28;20057;-72
2023/12/31 19:42:45;;;;;;;19.75;13.32;;;;;;;5.25;92.62;100540.06;10374940;28;20132;-72
2023/12/31 19:47:46;;;;;;;19.45;12.98;;;;;;;5.69;92.81;100598.72;10399428;28;20041;-72
2023/12/31 19:52:46;;;;;;;19.80;13.13;;;;;;;5.72;93.24;100601.09;10425584;28;20041;-72
2023/12/31 19:57:47;;;;;;;19.30;12.05;;;;;;;5.53;92.58;100560.59;10426613;28;20445;-72
2023/12/31 20:02:48;;;;;;;20.33;12.52;;;;;;;5.79;92.96;100597.94;10425602;28;20048;-72
2023/12/31 20:07:49;;;;;;;15.70;11.93;;;;;;;5.79;92.40;100611.94;10426014;28;20099;-72
2023/12/31 20:12:50;;;;;;;14.95;10.88;;;;;;;5.78;92.27;100598.91;10425348;28;20045;-72
2023/12/31 20:17:52;;;;;;;19.52;12.32;;;;;;;5.45;92.64;100538.38;10425557;28;20588;-72
2023/12/31 20:22:53;;;;;;;16.92;12.00;;;;;;;5.78;92.23;100607.66;10426125;28;20052;-71
2023/12/31 20:27:54;;;;;;;18.48;13.02;;;;;;;5.81;92.98;100622.38;10425345;28;20045;-75
2023/12/31 20:32:55;;;;;;;19.98;12.27;;;;;;;5.78;93.29;100628.75;10421160;28;20052;-72
2023/12/31 20:37:56;;;;;;;16.83;12.13;;;;;;;5.10;92.68;100512.38;10426155;28;20060;-72
2023/12/31 20:42:57;;;;;;;21.70;12.88;;;;;;;5.84;93.40;100635.28;10425447;28;20053;-73
2023/12/31 20:47:58;;;;;;;20.33;11.77;;;;;;;5.47;93.16;100570.72;10426101;28;20427;-73
2023/12/31 20:52:59;;;;;;;21.67;11.90;;;;;;;5.39;93.06;100562.63;10426579;28;20107;-73
2023/12/31 20:57:59;;;;;;;18.92;12.68;;;;;;;5.74;93.27;100624.69;10417123;28;20564;-73
2023/12/31 21:03:00;;;;;;;16.75;11.60;;;;;;;5.88;92.84;100645.44;10417823;28;20493;-72
2023/12/31 21:08:01;;;;;;;21.48;14.68;;;;;;;5.83;93.51;100629.16;10418644;28;20045;-73
2023/12/31 21:13:02;;;;;;;19.00;13.32;;;;;;;5.91;93.07;100649.63;10416819;28;20460;-72
2023/12/31 21:18:03;;;;;;;19.58;12.02;;;;;;;5.59;93.47;100591.72;10417724;28;20041;-72
2023/12/31 21:23:04;;;;;;;22.00;12.82;;;;;;;5.88;94.01;100632.25;10418037;28;20045;-72
2023/12/31 21:28:07;;;;;;;19.85;12.15;;;;;;;5.60;94.37;100577.59;10417885;28;20041;-72
2023/12/31 21:33:09;;;;;;;17.67;13.40;;;;;;;6.13;94.00;100652.13;10416225;28;20136;-72
2023/12/31 21:38:11;;;;;;;18.73;12.50;;;;;;;6.14;94.82;100637.16;10415290;28;20053;-73
2023/12/31 21:43:12;;;;;;;19.92;13.30;;;;;;;6.36;95.37;100658.03;10416673;28;20046;-73
2023/12/31 21:48:12;;;;;;;16.85;11.88;;;;;;;6.55;96.07;100654.66;10417209;28;20115;-73
2023/12/31 21:53:13;;;;;;;13.73;10.98;;;;;;;6.08;96.51;100555.91;10416277;28;20490;-73
2023/12/31 21:58:14;;;;;;;17.92;11.00;;;;;;;6.92;96.67;100661.13;10415478;28;20048;-73
2023/12/31 22:03:15;;;;;;;15.32;10.38;;;;;;;7.11;97.60;100661.16;10416441;28;20048;-71
2023/12/31 22:08:16;;;;;;;11.27;9.35;;;;;;;7.25;98.04;100668.66;10415282;28;20486;-71
2023/12/31 22:13:18;;;;;;;14.77;9.63;;;;;;;7.25;98.09;100668.66;10415487;28;20524;-72
2023/12/31 22:18:19;;;;;;;13.23;9.32;;;;;;;7.42;97.89;100682.16;10415608;28;20037;-71
2023/12/31 22:23:22;;;;;;;12.07;9.23;;;;;;;7.50;97.21;100693.69;10415012;28;20428;-71
2023/12/31 22:28:23;;;;;;;11.13;9.20;;;;;;;7.52;97.31;100704.97;10415043;28;20068;-72
2023/12/31 22:33:24;;;;;;;11.35;8.75;;;;;;;7.52;97.69;100701.50;10413520;28;20055;-73
2023/12/31 22:38:28;;;;;;;12.02;9.05;;;;;;;7.51;98.04;100711.25;10414618;28;20049;-74
2023/12/31 22:43:28;;;;;;;13.38;8.77;;;;;;;7.22;98.18;100663.66;10414592;28;20049;-73
2023/12/31 22:48:30;;;;;;;13.95;9.07;;;;;;;7.58;98.35;100742.41;10414153;28;20052;-71
2023/12/31 22:53:31;;;;;;;10.48;8.70;;;;;;;7.54;98.81;100729.47;10414649;28;20052;-71